sensor_id;sensor_type;location;lat;lon;timestamp;P1;durP1;ratioP1;P2;durP2;ratioP2
19341;SDS011;9807;48.258;12.690;2023-08-06T00:00:50;7.93;;;5.70;;
19341;SDS011;9807;48.258;12.690;2023-08-06T00:03:16;8.43;;;5.83;;
19341;SDS011;9807;48.258;12.690;2023-08-06T00:05:42;5.87;;;5.27;;
19341;SDS011;9807;48.258;12.690;2023-08-06T00:08:08;7.87;;;6.00;;
19341;SDS011;9807;48.258;12.690;2023-08-06T00:10:33;11.30;;;5.87;;
19341;SDS011;9807;48.258;12.690;2023-08-06T00:12:59;8.87;;;5.70;;
19341;SDS011;9807;48.258;12.690;2023-08-06T00:15:25;8.07;;;5.87;;
19341;SDS011;9807;48.258;12.690;2023-08-06T00:17:50;9.23;;;6.00;;
19341;SDS011;9807;48.258;12.690;2023-08-06T00:20:16;8.17;;;5.60;;
19341;SDS011;9807;48.258;12.690;2023-08-06T00:22:42;8.73;;;6.10;;
19341;SDS011;9807;48.258;12.690;2023-08-06T00:25:08;11.00;;;6.10;;
19341;SDS011;9807;48.258;12.690;2023-08-06T00:27:33;7.33;;;5.43;;
19341;SDS011;9807;48.258;12.690;2023-08-06T00:29:59;9.27;;;5.33;;
19341;SDS011;9807;48.258;12.690;2023-08-06T00:32:25;7.10;;;5.20;;
19341;SDS011;9807;48.258;12.690;2023-08-06T00:34:57;6.63;;;5.57;;
19341;SDS011;9807;48.258;12.690;2023-08-06T00:37:26;7.80;;;5.67;;
19341;SDS011;9807;48.258;12.690;2023-08-06T00:39:51;7.23;;;5.80;;
19341;SDS011;9807;48.258;12.690;2023-08-06T00:42:17;7.07;;;5.97;;
19341;SDS011;9807;48.258;12.690;2023-08-06T00:44:45;6.90;;;5.73;;
19341;SDS011;9807;48.258;12.690;2023-08-06T00:47:11;9.70;;;6.27;;
19341;SDS011;9807;48.258;12.690;2023-08-06T00:49:38;10.03;;;5.70;;
19341;SDS011;9807;48.258;12.690;2023-08-06T00:52:04;8.97;;;6.07;;
19341;SDS011;9807;48.258;12.690;2023-08-06T00:54:31;7.63;;;5.83;;
19341;SDS011;9807;48.258;12.690;2023-08-06T00:56:59;8.00;;;6.10;;
19341;SDS011;9807;48.258;12.690;2023-08-06T00:59:27;7.50;;;5.63;;
19341;SDS011;9807;48.258;12.690;2023-08-06T01:01:53;7.43;;;5.67;;
19341;SDS011;9807;48.258;12.690;2023-08-06T01:04:19;9.23;;;6.00;;
19341;SDS011;9807;48.258;12.690;2023-08-06T01:06:46;6.00;;;5.40;;
19341;SDS011;9807;48.258;12.690;2023-08-06T01:12:13;9.37;;;6.10;;
19341;SDS011;9807;48.258;12.690;2023-08-06T01:15:01;13.63;;;6.93;;
19341;SDS011;9807;48.258;12.690;2023-08-06T01:17:53;9.13;;;6.50;;
19341;SDS011;9807;48.258;12.690;2023-08-06T01:20:19;10.83;;;6.33;;
19341;SDS011;9807;48.258;12.690;2023-08-06T01:22:44;8.50;;;6.10;;
19341;SDS011;9807;48.258;12.690;2023-08-06T01:25:10;7.33;;;5.90;;
19341;SDS011;9807;48.258;12.690;2023-08-06T01:27:49;6.90;;;5.57;;
19341;SDS011;9807;48.258;12.690;2023-08-06T01:30:20;9.67;;;5.90;;
19341;SDS011;9807;48.258;12.690;2023-08-06T01:32:53;12.00;;;5.87;;
19341;SDS011;9807;48.258;12.690;2023-08-06T01:35:26;9.97;;;6.03;;
19341;SDS011;9807;48.258;12.690;2023-08-06T01:37:54;6.10;;;5.10;;
19341;SDS011;9807;48.258;12.690;2023-08-06T01:40:21;10.17;;;6.30;;
19341;SDS011;9807;48.258;12.690;2023-08-06T01:42:46;9.67;;;6.07;;
19341;SDS011;9807;48.258;12.690;2023-08-06T01:45:12;6.77;;;5.87;;
19341;SDS011;9807;48.258;12.690;2023-08-06T01:47:44;8.73;;;6.33;;
19341;SDS011;9807;48.258;12.690;2023-08-06T01:50:10;7.60;;;5.70;;
19341;SDS011;9807;48.258;12.690;2023-08-06T01:52:35;6.73;;;5.80;;
19341;SDS011;9807;48.258;12.690;2023-08-06T01:55:01;8.43;;;5.30;;
19341;SDS011;9807;48.258;12.690;2023-08-06T01:57:27;8.10;;;5.40;;
19341;SDS011;9807;48.258;12.690;2023-08-06T01:59:53;7.20;;;5.60;;
19341;SDS011;9807;48.258;12.690;2023-08-06T02:02:18;9.40;;;6.17;;
19341;SDS011;9807;48.258;12.690;2023-08-06T02:04:44;11.30;;;6.77;;
19341;SDS011;9807;48.258;12.690;2023-08-06T02:07:10;10.43;;;6.90;;
19341;SDS011;9807;48.258;12.690;2023-08-06T02:09:35;8.30;;;6.30;;
19341;SDS011;9807;48.258;12.690;2023-08-06T02:12:01;10.40;;;6.83;;
19341;SDS011;9807;48.258;12.690;2023-08-06T02:14:27;9.03;;;6.63;;
19341;SDS011;9807;48.258;12.690;2023-08-06T02:16:53;11.70;;;6.40;;
19341;SDS011;9807;48.258;12.690;2023-08-06T02:19:19;9.83;;;6.53;;
19341;SDS011;9807;48.258;12.690;2023-08-06T02:21:44;7.17;;;6.07;;
19341;SDS011;9807;48.258;12.690;2023-08-06T02:24:10;11.93;;;6.40;;
19341;SDS011;9807;48.258;12.690;2023-08-06T02:26:38;9.97;;;6.43;;
19341;SDS011;9807;48.258;12.690;2023-08-06T02:29:04;15.37;;;6.90;;
19341;SDS011;9807;48.258;12.690;2023-08-06T02:31:29;8.63;;;6.70;;
19341;SDS011;9807;48.258;12.690;2023-08-06T02:33:55;8.10;;;6.50;;
19341;SDS011;9807;48.258;12.690;2023-08-06T02:36:22;9.13;;;6.40;;
19341;SDS011;9807;48.258;12.690;2023-08-06T02:38:48;9.03;;;6.60;;
19341;SDS011;9807;48.258;12.690;2023-08-06T02:41:13;10.00;;;6.50;;
19341;SDS011;9807;48.258;12.690;2023-08-06T02:43:39;8.47;;;6.57;;
19341;SDS011;9807;48.258;12.690;2023-08-06T02:46:05;8.73;;;6.40;;
19341;SDS011;9807;48.258;12.690;2023-08-06T02:48:30;10.17;;;7.33;;
19341;SDS011;9807;48.258;12.690;2023-08-06T02:50:59;9.33;;;7.50;;
19341;SDS011;9807;48.258;12.690;2023-08-06T02:53:25;8.83;;;5.93;;
19341;SDS011;9807;48.258;12.690;2023-08-06T02:55:50;9.80;;;6.93;;
19341;SDS011;9807;48.258;12.690;2023-08-06T02:58:16;10.50;;;7.17;;
19341;SDS011;9807;48.258;12.690;2023-08-06T03:00:47;7.97;;;6.47;;
19341;SDS011;9807;48.258;12.690;2023-08-06T03:03:26;10.20;;;6.50;;
19341;SDS011;9807;48.258;12.690;2023-08-06T03:05:52;10.07;;;6.30;;
19341;SDS011;9807;48.258;12.690;2023-08-06T03:08:18;7.93;;;5.93;;
19341;SDS011;9807;48.258;12.690;2023-08-06T03:10:47;8.90;;;6.00;;
19341;SDS011;9807;48.258;12.690;2023-08-06T03:13:13;7.93;;;6.00;;
19341;SDS011;9807;48.258;12.690;2023-08-06T03:15:42;9.17;;;6.27;;
19341;SDS011;9807;48.258;12.690;2023-08-06T03:18:08;7.03;;;5.93;;
19341;SDS011;9807;48.258;12.690;2023-08-06T03:20:34;7.37;;;6.30;;
19341;SDS011;9807;48.258;12.690;2023-08-06T03:22:59;10.30;;;6.00;;
19341;SDS011;9807;48.258;12.690;2023-08-06T03:25:25;8.80;;;5.90;;
19341;SDS011;9807;48.258;12.690;2023-08-06T03:27:51;8.27;;;5.70;;
19341;SDS011;9807;48.258;12.690;2023-08-06T03:30:16;8.83;;;5.67;;
19341;SDS011;9807;48.258;12.690;2023-08-06T03:32:42;9.27;;;5.40;;
19341;SDS011;9807;48.258;12.690;2023-08-06T03:35:08;9.47;;;5.67;;
19341;SDS011;9807;48.258;12.690;2023-08-06T03:37:39;11.83;;;5.43;;
19341;SDS011;9807;48.258;12.690;2023-08-06T03:40:04;7.40;;;5.77;;
19341;SDS011;9807;48.258;12.690;2023-08-06T03:42:31;5.90;;;5.30;;
19341;SDS011;9807;48.258;12.690;2023-08-06T03:44:56;7.93;;;5.07;;
19341;SDS011;9807;48.258;12.690;2023-08-06T03:47:22;7.57;;;5.63;;
19341;SDS011;9807;48.258;12.690;2023-08-06T03:49:51;5.43;;;4.87;;
19341;SDS011;9807;48.258;12.690;2023-08-06T03:52:17;10.70;;;5.43;;
19341;SDS011;9807;48.258;12.690;2023-08-06T03:54:43;7.83;;;5.07;;
19341;SDS011;9807;48.258;12.690;2023-08-06T03:57:09;6.63;;;5.60;;
19341;SDS011;9807;48.258;12.690;2023-08-06T03:59:35;6.00;;;5.10;;
19341;SDS011;9807;48.258;12.690;2023-08-06T04:02:01;7.13;;;5.13;;
19341;SDS011;9807;48.258;12.690;2023-08-06T04:04:30;5.37;;;4.50;;
19341;SDS011;9807;48.258;12.690;2023-08-06T04:06:56;8.63;;;4.80;;
19341;SDS011;9807;48.258;12.690;2023-08-06T04:09:22;5.00;;;4.40;;
19341;SDS011;9807;48.258;12.690;2023-08-06T04:11:47;5.73;;;4.57;;
19341;SDS011;9807;48.258;12.690;2023-08-06T04:14:13;5.47;;;4.53;;
19341;SDS011;9807;48.258;12.690;2023-08-06T04:16:39;5.93;;;5.00;;
19341;SDS011;9807;48.258;12.690;2023-08-06T04:19:04;6.73;;;5.00;;
19341;SDS011;9807;48.258;12.690;2023-08-06T04:21:30;6.40;;;5.40;;
19341;SDS011;9807;48.258;12.690;2023-08-06T04:23:56;5.70;;;5.10;;
19341;SDS011;9807;48.258;12.690;2023-08-06T04:26:22;8.87;;;5.57;;
19341;SDS011;9807;48.258;12.690;2023-08-06T04:28:50;9.23;;;5.53;;
19341;SDS011;9807;48.258;12.690;2023-08-06T04:31:15;9.80;;;6.57;;
19341;SDS011;9807;48.258;12.690;2023-08-06T04:33:41;15.47;;;9.10;;
19341;SDS011;9807;48.258;12.690;2023-08-06T04:36:07;11.73;;;8.93;;
19341;SDS011;9807;48.258;12.690;2023-08-06T04:38:33;9.87;;;7.20;;
19341;SDS011;9807;48.258;12.690;2023-08-06T04:40:59;7.80;;;6.87;;
19341;SDS011;9807;48.258;12.690;2023-08-06T04:43:26;8.87;;;6.03;;
19341;SDS011;9807;48.258;12.690;2023-08-06T04:45:54;8.10;;;6.13;;
19341;SDS011;9807;48.258;12.690;2023-08-06T04:48:21;10.90;;;6.70;;
19341;SDS011;9807;48.258;12.690;2023-08-06T04:50:47;7.63;;;5.27;;
19341;SDS011;9807;48.258;12.690;2023-08-06T04:53:14;8.33;;;5.70;;
19341;SDS011;9807;48.258;12.690;2023-08-06T04:55:43;5.63;;;5.03;;
19341;SDS011;9807;48.258;12.690;2023-08-06T04:58:12;5.73;;;3.97;;
19341;SDS011;9807;48.258;12.690;2023-08-06T05:00:38;6.00;;;5.00;;
19341;SDS011;9807;48.258;12.690;2023-08-06T05:03:06;5.70;;;4.13;;
19341;SDS011;9807;48.258;12.690;2023-08-06T05:05:32;7.73;;;4.57;;
19341;SDS011;9807;48.258;12.690;2023-08-06T05:07:58;6.83;;;4.27;;
19341;SDS011;9807;48.258;12.690;2023-08-06T05:10:24;5.70;;;4.80;;
19341;SDS011;9807;48.258;12.690;2023-08-06T05:12:51;7.67;;;4.47;;
19341;SDS011;9807;48.258;12.690;2023-08-06T05:15:16;4.93;;;4.33;;
19341;SDS011;9807;48.258;12.690;2023-08-06T05:17:42;12.43;;;4.87;;
19341;SDS011;9807;48.258;12.690;2023-08-06T05:20:08;7.93;;;4.60;;
19341;SDS011;9807;48.258;12.690;2023-08-06T05:22:34;6.63;;;4.30;;
19341;SDS011;9807;48.258;12.690;2023-08-06T05:25:00;7.30;;;4.70;;
19341;SDS011;9807;48.258;12.690;2023-08-06T05:27:25;6.53;;;4.50;;
19341;SDS011;9807;48.258;12.690;2023-08-06T05:29:54;6.20;;;4.37;;
19341;SDS011;9807;48.258;12.690;2023-08-06T05:32:21;5.70;;;4.57;;
19341;SDS011;9807;48.258;12.690;2023-08-06T05:34:47;7.07;;;4.67;;
19341;SDS011;9807;48.258;12.690;2023-08-06T05:37:13;6.03;;;4.43;;
19341;SDS011;9807;48.258;12.690;2023-08-06T05:39:38;8.97;;;4.97;;
19341;SDS011;9807;48.258;12.690;2023-08-06T05:42:04;9.57;;;4.80;;
19341;SDS011;9807;48.258;12.690;2023-08-06T05:44:30;5.20;;;4.40;;
19341;SDS011;9807;48.258;12.690;2023-08-06T05:46:56;5.53;;;4.67;;
19341;SDS011;9807;48.258;12.690;2023-08-06T05:49:21;7.80;;;4.60;;
19341;SDS011;9807;48.258;12.690;2023-08-06T05:51:47;6.80;;;4.63;;
19341;SDS011;9807;48.258;12.690;2023-08-06T05:54:13;6.10;;;4.60;;
19341;SDS011;9807;48.258;12.690;2023-08-06T05:56:39;6.23;;;4.17;;
19341;SDS011;9807;48.258;12.690;2023-08-06T05:59:04;4.63;;;4.13;;
19341;SDS011;9807;48.258;12.690;2023-08-06T06:01:30;7.33;;;4.57;;
19341;SDS011;9807;48.258;12.690;2023-08-06T06:03:56;6.50;;;4.30;;
19341;SDS011;9807;48.258;12.690;2023-08-06T06:06:21;5.17;;;4.33;;
19341;SDS011;9807;48.258;12.690;2023-08-06T06:08:47;5.77;;;4.27;;
19341;SDS011;9807;48.258;12.690;2023-08-06T06:11:13;4.93;;;4.13;;
19341;SDS011;9807;48.258;12.690;2023-08-06T06:13:39;4.73;;;4.30;;
19341;SDS011;9807;48.258;12.690;2023-08-06T06:16:04;7.27;;;4.17;;
19341;SDS011;9807;48.258;12.690;2023-08-06T06:18:30;7.97;;;4.00;;
19341;SDS011;9807;48.258;12.690;2023-08-06T06:20:56;5.03;;;3.87;;
19341;SDS011;9807;48.258;12.690;2023-08-06T06:23:21;4.97;;;4.03;;
19341;SDS011;9807;48.258;12.690;2023-08-06T06:25:48;13.20;;;4.30;;
19341;SDS011;9807;48.258;12.690;2023-08-06T06:28:16;4.97;;;4.10;;
19341;SDS011;9807;48.258;12.690;2023-08-06T06:30:42;6.13;;;4.00;;
19341;SDS011;9807;48.258;12.690;2023-08-06T06:33:08;5.13;;;4.00;;
19341;SDS011;9807;48.258;12.690;2023-08-06T06:35:34;5.33;;;4.03;;
19341;SDS011;9807;48.258;12.690;2023-08-06T06:38:00;4.37;;;3.70;;
19341;SDS011;9807;48.258;12.690;2023-08-06T06:40:26;5.10;;;4.10;;
19341;SDS011;9807;48.258;12.690;2023-08-06T06:42:51;9.07;;;4.00;;
19341;SDS011;9807;48.258;12.690;2023-08-06T06:45:19;6.07;;;3.83;;
19341;SDS011;9807;48.258;12.690;2023-08-06T06:47:45;5.10;;;3.70;;
19341;SDS011;9807;48.258;12.690;2023-08-06T06:50:11;5.43;;;3.77;;
19341;SDS011;9807;48.258;12.690;2023-08-06T06:52:37;5.93;;;3.63;;
19341;SDS011;9807;48.258;12.690;2023-08-06T06:55:03;3.93;;;3.47;;
19341;SDS011;9807;48.258;12.690;2023-08-06T06:57:29;5.03;;;3.70;;
19341;SDS011;9807;48.258;12.690;2023-08-06T06:59:55;6.53;;;3.70;;
19341;SDS011;9807;48.258;12.690;2023-08-06T07:02:20;4.63;;;3.53;;
19341;SDS011;9807;48.258;12.690;2023-08-06T07:04:46;5.20;;;3.20;;
19341;SDS011;9807;48.258;12.690;2023-08-06T07:07:12;4.77;;;2.97;;
19341;SDS011;9807;48.258;12.690;2023-08-06T07:09:37;3.77;;;3.10;;
19341;SDS011;9807;48.258;12.690;2023-08-06T07:12:03;5.43;;;3.07;;
19341;SDS011;9807;48.258;12.690;2023-08-06T07:14:29;3.70;;;2.70;;
19341;SDS011;9807;48.258;12.690;2023-08-06T07:16:55;5.63;;;3.27;;
19341;SDS011;9807;48.258;12.690;2023-08-06T07:19:20;3.73;;;3.13;;
19341;SDS011;9807;48.258;12.690;2023-08-06T07:21:46;5.33;;;3.00;;
19341;SDS011;9807;48.258;12.690;2023-08-06T07:24:12;6.63;;;2.90;;
19341;SDS011;9807;48.258;12.690;2023-08-06T07:26:38;4.50;;;3.00;;
19341;SDS011;9807;48.258;12.690;2023-08-06T07:29:03;4.17;;;2.77;;
19341;SDS011;9807;48.258;12.690;2023-08-06T07:31:29;8.33;;;2.90;;
19341;SDS011;9807;48.258;12.690;2023-08-06T07:33:55;3.77;;;2.60;;
19341;SDS011;9807;48.258;12.690;2023-08-06T07:36:20;3.90;;;2.70;;
19341;SDS011;9807;48.258;12.690;2023-08-06T07:38:46;6.50;;;2.50;;
19341;SDS011;9807;48.258;12.690;2023-08-06T07:41:16;3.70;;;2.57;;
19341;SDS011;9807;48.258;12.690;2023-08-06T07:43:42;2.80;;;2.20;;
19341;SDS011;9807;48.258;12.690;2023-08-06T07:46:07;6.10;;;2.40;;
19341;SDS011;9807;48.258;12.690;2023-08-06T07:48:33;4.47;;;2.20;;
19341;SDS011;9807;48.258;12.690;2023-08-06T07:50:59;5.17;;;2.43;;
19341;SDS011;9807;48.258;12.690;2023-08-06T07:53:25;6.23;;;2.43;;
19341;SDS011;9807;48.258;12.690;2023-08-06T07:55:57;4.73;;;2.30;;
19341;SDS011;9807;48.258;12.690;2023-08-06T07:58:27;2.57;;;2.30;;
19341;SDS011;9807;48.258;12.690;2023-08-06T08:00:54;5.47;;;2.40;;
19341;SDS011;9807;48.258;12.690;2023-08-06T08:03:23;4.17;;;2.33;;
19341;SDS011;9807;48.258;12.690;2023-08-06T08:05:48;6.53;;;2.40;;
19341;SDS011;9807;48.258;12.690;2023-08-06T08:08:14;3.67;;;2.50;;
19341;SDS011;9807;48.258;12.690;2023-08-06T08:10:41;6.33;;;2.50;;
19341;SDS011;9807;48.258;12.690;2023-08-06T08:13:10;3.27;;;2.37;;
19341;SDS011;9807;48.258;12.690;2023-08-06T08:15:36;3.97;;;2.47;;
19341;SDS011;9807;48.258;12.690;2023-08-06T08:18:01;3.80;;;2.57;;
19341;SDS011;9807;48.258;12.690;2023-08-06T08:20:27;4.00;;;2.30;;
19341;SDS011;9807;48.258;12.690;2023-08-06T08:22:57;4.47;;;2.10;;
19341;SDS011;9807;48.258;12.690;2023-08-06T08:25:23;4.17;;;2.10;;
19341;SDS011;9807;48.258;12.690;2023-08-06T08:27:49;4.43;;;2.27;;
19341;SDS011;9807;48.258;12.690;2023-08-06T08:30:15;3.73;;;2.13;;
19341;SDS011;9807;48.258;12.690;2023-08-06T08:32:40;4.93;;;2.03;;
19341;SDS011;9807;48.258;12.690;2023-08-06T08:35:09;3.40;;;2.00;;
19341;SDS011;9807;48.258;12.690;2023-08-06T08:37:41;3.20;;;1.90;;
19341;SDS011;9807;48.258;12.690;2023-08-06T08:40:08;2.43;;;1.77;;
19341;SDS011;9807;48.258;12.690;2023-08-06T08:42:34;4.27;;;1.70;;
19341;SDS011;9807;48.258;12.690;2023-08-06T08:45:01;2.53;;;1.37;;
19341;SDS011;9807;48.258;12.690;2023-08-06T08:47:29;3.80;;;1.63;;
19341;SDS011;9807;48.258;12.690;2023-08-06T08:49:56;4.33;;;1.80;;
19341;SDS011;9807;48.258;12.690;2023-08-06T08:52:25;2.63;;;1.63;;
19341;SDS011;9807;48.258;12.690;2023-08-06T08:54:55;4.47;;;1.40;;
19341;SDS011;9807;48.258;12.690;2023-08-06T08:57:22;3.83;;;1.80;;
19341;SDS011;9807;48.258;12.690;2023-08-06T08:59:52;3.83;;;1.43;;
19341;SDS011;9807;48.258;12.690;2023-08-06T09:02:18;1.50;;;1.33;;
19341;SDS011;9807;48.258;12.690;2023-08-06T09:04:48;4.27;;;1.40;;
19341;SDS011;9807;48.258;12.690;2023-08-06T09:07:16;2.90;;;1.60;;
19341;SDS011;9807;48.258;12.690;2023-08-06T09:09:44;2.23;;;1.50;;
19341;SDS011;9807;48.258;12.690;2023-08-06T09:12:14;3.90;;;1.50;;
19341;SDS011;9807;48.258;12.690;2023-08-06T09:14:42;1.27;;;1.17;;
19341;SDS011;9807;48.258;12.690;2023-08-06T09:17:11;3.73;;;1.20;;
19341;SDS011;9807;48.258;12.690;2023-08-06T09:19:37;1.80;;;1.30;;
19341;SDS011;9807;48.258;12.690;2023-08-06T09:22:02;3.00;;;1.43;;
19341;SDS011;9807;48.258;12.690;2023-08-06T09:24:28;1.87;;;1.20;;
19341;SDS011;9807;48.258;12.690;2023-08-06T09:26:54;1.03;;;0.70;;
19341;SDS011;9807;48.258;12.690;2023-08-06T09:29:20;1.30;;;0.70;;
19341;SDS011;9807;48.258;12.690;2023-08-06T09:31:46;2.20;;;0.80;;
19341;SDS011;9807;48.258;12.690;2023-08-06T09:34:17;0.60;;;0.60;;
19341;SDS011;9807;48.258;12.690;2023-08-06T09:36:50;2.50;;;0.70;;
19341;SDS011;9807;48.258;12.690;2023-08-06T09:39:20;1.60;;;0.70;;
19341;SDS011;9807;48.258;12.690;2023-08-06T09:41:47;2.27;;;0.50;;
19341;SDS011;9807;48.258;12.690;2023-08-06T09:44:15;3.13;;;0.83;;
19341;SDS011;9807;48.258;12.690;2023-08-06T09:46:51;2.63;;;1.00;;
19341;SDS011;9807;48.258;12.690;2023-08-06T09:49:21;1.20;;;0.70;;
19341;SDS011;9807;48.258;12.690;2023-08-06T09:51:51;2.33;;;0.87;;
19341;SDS011;9807;48.258;12.690;2023-08-06T09:54:20;1.53;;;0.87;;
19341;SDS011;9807;48.258;12.690;2023-08-06T09:56:48;1.47;;;0.70;;
19341;SDS011;9807;48.258;12.690;2023-08-06T09:59:14;2.83;;;0.70;;
19341;SDS011;9807;48.258;12.690;2023-08-06T10:01:43;1.03;;;0.90;;
19341;SDS011;9807;48.258;12.690;2023-08-06T10:04:10;1.00;;;0.73;;
19341;SDS011;9807;48.258;12.690;2023-08-06T10:06:46;1.10;;;0.80;;
19341;SDS011;9807;48.258;12.690;2023-08-06T10:09:13;2.90;;;0.77;;
19341;SDS011;9807;48.258;12.690;2023-08-06T10:11:39;2.07;;;0.80;;
19341;SDS011;9807;48.258;12.690;2023-08-06T10:14:16;4.57;;;0.80;;
19341;SDS011;9807;48.258;12.690;2023-08-06T10:16:48;2.80;;;0.90;;
19341;SDS011;9807;48.258;12.690;2023-08-06T10:19:15;1.70;;;0.70;;
19341;SDS011;9807;48.258;12.690;2023-08-06T10:22:07;1.33;;;0.80;;
19341;SDS011;9807;48.258;12.690;2023-08-06T10:24:50;1.33;;;0.80;;
19341;SDS011;9807;48.258;12.690;2023-08-06T10:27:32;2.10;;;1.00;;
19341;SDS011;9807;48.258;12.690;2023-08-06T10:32:49;5.83;;;1.97;;
19341;SDS011;9807;48.258;12.690;2023-08-06T10:35:29;6.17;;;1.23;;
19341;SDS011;9807;48.258;12.690;2023-08-06T10:38:08;3.03;;;0.90;;
19341;SDS011;9807;48.258;12.690;2023-08-06T10:40:44;5.63;;;1.20;;
19341;SDS011;9807;48.258;12.690;2023-08-06T10:43:26;3.03;;;1.33;;
19341;SDS011;9807;48.258;12.690;2023-08-06T10:45:53;3.13;;;0.77;;
19341;SDS011;9807;48.258;12.690;2023-08-06T10:48:29;4.13;;;0.50;;
19341;SDS011;9807;48.258;12.690;2023-08-06T10:51:10;0.70;;;0.50;;
19341;SDS011;9807;48.258;12.690;2023-08-06T10:53:45;1.40;;;0.50;;
19341;SDS011;9807;48.258;12.690;2023-08-06T10:56:13;1.77;;;0.37;;
19341;SDS011;9807;48.258;12.690;2023-08-06T10:58:39;1.60;;;0.50;;
19341;SDS011;9807;48.258;12.690;2023-08-06T11:01:05;1.20;;;0.50;;
19341;SDS011;9807;48.258;12.690;2023-08-06T11:03:31;0.90;;;0.40;;
19341;SDS011;9807;48.258;12.690;2023-08-06T11:05:59;2.23;;;0.40;;
19341;SDS011;9807;48.258;12.690;2023-08-06T11:08:26;2.17;;;0.53;;
19341;SDS011;9807;48.258;12.690;2023-08-06T11:10:52;2.83;;;0.50;;
19341;SDS011;9807;48.258;12.690;2023-08-06T11:13:18;0.43;;;0.40;;
19341;SDS011;9807;48.258;12.690;2023-08-06T11:15:45;1.53;;;0.50;;
19341;SDS011;9807;48.258;12.690;2023-08-06T11:18:11;1.40;;;0.43;;
19341;SDS011;9807;48.258;12.690;2023-08-06T11:20:37;1.70;;;0.60;;
19341;SDS011;9807;48.258;12.690;2023-08-06T11:23:03;2.40;;;0.67;;
19341;SDS011;9807;48.258;12.690;2023-08-06T11:25:29;1.83;;;0.80;;
19341;SDS011;9807;48.258;12.690;2023-08-06T11:27:55;3.43;;;0.60;;
19341;SDS011;9807;48.258;12.690;2023-08-06T11:30:21;2.60;;;0.70;;
19341;SDS011;9807;48.258;12.690;2023-08-06T11:32:47;2.00;;;0.73;;
19341;SDS011;9807;48.258;12.690;2023-08-06T11:35:13;1.83;;;0.60;;
19341;SDS011;9807;48.258;12.690;2023-08-06T11:37:43;1.23;;;0.60;;
19341;SDS011;9807;48.258;12.690;2023-08-06T11:40:13;0.40;;;0.40;;
19341;SDS011;9807;48.258;12.690;2023-08-06T11:42:40;2.70;;;0.70;;
19341;SDS011;9807;48.258;12.690;2023-08-06T11:45:07;2.83;;;0.50;;
19341;SDS011;9807;48.258;12.690;2023-08-06T11:47:36;3.57;;;0.53;;
19341;SDS011;9807;48.258;12.690;2023-08-06T11:50:04;2.50;;;0.70;;
19341;SDS011;9807;48.258;12.690;2023-08-06T11:52:31;1.10;;;0.70;;
19341;SDS011;9807;48.258;12.690;2023-08-06T11:57:31;0.77;;;0.50;;
19341;SDS011;9807;48.258;12.690;2023-08-06T12:02:33;0.60;;;0.50;;
19341;SDS011;9807;48.258;12.690;2023-08-06T12:05:04;0.40;;;0.40;;
19341;SDS011;9807;48.258;12.690;2023-08-06T12:07:36;0.87;;;0.50;;
19341;SDS011;9807;48.258;12.690;2023-08-06T12:10:03;4.27;;;0.83;;
19341;SDS011;9807;48.258;12.690;2023-08-06T12:12:29;0.93;;;0.40;;
19341;SDS011;9807;48.258;12.690;2023-08-06T12:14:55;2.57;;;0.40;;
19341;SDS011;9807;48.258;12.690;2023-08-06T12:17:21;0.40;;;0.40;;
19341;SDS011;9807;48.258;12.690;2023-08-06T12:19:47;1.00;;;0.50;;
19341;SDS011;9807;48.258;12.690;2023-08-06T12:22:14;0.40;;;0.40;;
19341;SDS011;9807;48.258;12.690;2023-08-06T12:24:43;0.40;;;0.40;;
19341;SDS011;9807;48.258;12.690;2023-08-06T12:27:10;0.70;;;0.67;;
19341;SDS011;9807;48.258;12.690;2023-08-06T12:29:46;0.77;;;0.30;;
19341;SDS011;9807;48.258;12.690;2023-08-06T12:32:13;2.47;;;0.40;;
19341;SDS011;9807;48.258;12.690;2023-08-06T12:34:40;0.30;;;0.30;;
19341;SDS011;9807;48.258;12.690;2023-08-06T12:37:07;1.00;;;0.50;;
19341;SDS011;9807;48.258;12.690;2023-08-06T12:39:33;0.87;;;0.30;;
19341;SDS011;9807;48.258;12.690;2023-08-06T12:42:00;2.63;;;0.40;;
19341;SDS011;9807;48.258;12.690;2023-08-06T12:44:26;1.90;;;0.40;;
19341;SDS011;9807;48.258;12.690;2023-08-06T12:46:52;1.47;;;0.30;;
19341;SDS011;9807;48.258;12.690;2023-08-06T12:49:19;0.23;;;0.23;;
19341;SDS011;9807;48.258;12.690;2023-08-06T12:51:48;1.17;;;0.30;;
19341;SDS011;9807;48.258;12.690;2023-08-06T12:54:15;0.63;;;0.20;;
19341;SDS011;9807;48.258;12.690;2023-08-06T12:56:43;0.33;;;0.30;;
19341;SDS011;9807;48.258;12.690;2023-08-06T12:59:09;2.67;;;0.20;;
19341;SDS011;9807;48.258;12.690;2023-08-06T13:01:35;0.53;;;0.30;;
19341;SDS011;9807;48.258;12.690;2023-08-06T13:04:02;1.10;;;0.20;;
19341;SDS011;9807;48.258;12.690;2023-08-06T13:06:27;0.30;;;0.30;;
19341;SDS011;9807;48.258;12.690;2023-08-06T13:08:53;1.60;;;0.40;;
19341;SDS011;9807;48.258;12.690;2023-08-06T13:11:19;1.83;;;0.33;;
19341;SDS011;9807;48.258;12.690;2023-08-06T13:13:44;0.73;;;0.50;;
19341;SDS011;9807;48.258;12.690;2023-08-06T13:16:10;0.53;;;0.30;;
19341;SDS011;9807;48.258;12.690;2023-08-06T13:18:36;2.90;;;0.30;;
19341;SDS011;9807;48.258;12.690;2023-08-06T13:21:01;1.40;;;1.00;;
19341;SDS011;9807;48.258;12.690;2023-08-06T13:23:27;2.50;;;0.90;;
19341;SDS011;9807;48.258;12.690;2023-08-06T13:25:53;1.90;;;0.40;;
19341;SDS011;9807;48.258;12.690;2023-08-06T13:28:18;0.87;;;0.60;;
19341;SDS011;9807;48.258;12.690;2023-08-06T13:30:45;1.03;;;0.90;;
19341;SDS011;9807;48.258;12.690;2023-08-06T13:33:11;2.20;;;0.50;;
19341;SDS011;9807;48.258;12.690;2023-08-06T13:35:36;0.70;;;0.70;;
19341;SDS011;9807;48.258;12.690;2023-08-06T13:38:02;0.67;;;0.50;;
19341;SDS011;9807;48.258;12.690;2023-08-06T13:40:28;0.60;;;0.50;;
19341;SDS011;9807;48.258;12.690;2023-08-06T13:42:55;1.77;;;1.13;;
19341;SDS011;9807;48.258;12.690;2023-08-06T13:45:21;2.67;;;0.60;;
19341;SDS011;9807;48.258;12.690;2023-08-06T13:47:47;1.87;;;1.23;;
19341;SDS011;9807;48.258;12.690;2023-08-06T13:50:12;1.77;;;0.60;;
19341;SDS011;9807;48.258;12.690;2023-08-06T13:52:38;4.23;;;0.70;;
19341;SDS011;9807;48.258;12.690;2023-08-06T13:55:04;2.17;;;0.80;;
19341;SDS011;9807;48.258;12.690;2023-08-06T13:57:31;1.20;;;0.57;;
19341;SDS011;9807;48.258;12.690;2023-08-06T13:59:56;1.00;;;0.90;;
19341;SDS011;9807;48.258;12.690;2023-08-06T14:02:22;0.90;;;0.60;;
19341;SDS011;9807;48.258;12.690;2023-08-06T14:04:48;2.27;;;0.60;;
19341;SDS011;9807;48.258;12.690;2023-08-06T14:07:14;7.23;;;0.40;;
19341;SDS011;9807;48.258;12.690;2023-08-06T14:09:40;1.00;;;0.30;;
19341;SDS011;9807;48.258;12.690;2023-08-06T14:12:07;0.73;;;0.30;;
19341;SDS011;9807;48.258;12.690;2023-08-06T14:14:33;0.30;;;0.20;;
19341;SDS011;9807;48.258;12.690;2023-08-06T14:16:58;0.40;;;0.27;;
19341;SDS011;9807;48.258;12.690;2023-08-06T14:19:24;0.40;;;0.40;;
19341;SDS011;9807;48.258;12.690;2023-08-06T14:21:50;2.37;;;0.40;;
19341;SDS011;9807;48.258;12.690;2023-08-06T14:24:16;0.30;;;0.30;;
19341;SDS011;9807;48.258;12.690;2023-08-06T14:26:41;0.50;;;0.30;;
19341;SDS011;9807;48.258;12.690;2023-08-06T14:29:07;2.73;;;0.30;;
19341;SDS011;9807;48.258;12.690;2023-08-06T14:31:32;1.63;;;0.47;;
19341;SDS011;9807;48.258;12.690;2023-08-06T14:33:58;2.40;;;0.30;;
19341;SDS011;9807;48.258;12.690;2023-08-06T14:36:24;1.03;;;0.30;;
19341;SDS011;9807;48.258;12.690;2023-08-06T14:38:50;0.40;;;0.30;;
19341;SDS011;9807;48.258;12.690;2023-08-06T14:41:16;0.43;;;0.30;;
19341;SDS011;9807;48.258;12.690;2023-08-06T14:43:41;0.73;;;0.37;;
19341;SDS011;9807;48.258;12.690;2023-08-06T14:46:07;0.90;;;0.20;;
19341;SDS011;9807;48.258;12.690;2023-08-06T14:48:33;0.40;;;0.30;;
19341;SDS011;9807;48.258;12.690;2023-08-06T14:50:58;0.30;;;0.30;;
19341;SDS011;9807;48.258;12.690;2023-08-06T14:53:24;0.20;;;0.20;;
19341;SDS011;9807;48.258;12.690;2023-08-06T14:55:49;1.97;;;0.40;;